Time;durP1;ratioP1;P1;durP2;ratioP2;P2;SDS_P1;SDS_P2;PMS_P1;PMS_P2;Temp;Humidity;BMP_temperature;BMP_pressure;BME280_temperature;BME280_humidity;BME280_pressure;Samples;Min_cycle;Max_cycle;Signal;HPM_P1;HPM_P2
2021/07/24 00:01:10;;;;;;;26.30;10.32;;;;;;;16.96;79.43;99885.90;1730593;81;21200;-89
2021/07/24 00:04:15;;;;;;;33.40;10.53;;;;;;;16.92;79.52;99891.56;1730573;83;21298;-88
2021/07/24 00:07:21;;;;;;;21.65;9.73;;;;;;;16.89;79.53;99893.42;1730517;83;21286;-78
2021/07/24 00:10:28;;;;;;;27.82;9.88;;;;;;;16.88;79.58;99889.48;1730434;81;21223;-77
2021/07/24 00:13:34;;;;;;;28.42;10.45;;;;;;;16.86;79.65;99890.56;1724596;82;21165;-87
2021/07/24 00:16:40;;;;;;;24.25;9.20;;;;;;;16.86;79.70;99889.19;1717768;82;21204;-88
2021/07/24 00:19:46;;;;;;;32.90;9.75;;;;;;;16.84;79.71;99890.47;1717717;82;21767;-88
2021/07/24 00:22:52;;;;;;;32.08;9.08;;;;;;;16.80;79.78;99894.79;1717569;83;21810;-87
2021/07/24 00:25:58;;;;;;;29.57;9.23;;;;;;;16.78;79.91;99894.16;1717441;82;21212;-78
2021/07/24 00:29:05;;;;;;;36.65;9.90;;;;;;;16.75;80.12;99900.12;1717503;83;21299;-78
2021/07/24 00:32:12;;;;;;;33.23;9.73;;;;;;;16.71;80.21;99895.58;1717560;83;21185;-78
2021/07/24 00:35:16;;;;;;;23.85;9.15;;;;;;;16.70;80.23;99897.16;1717310;82;21734;-87
2021/07/24 00:38:22;;;;;;;30.25;9.50;;;;;;;16.69;80.36;99901.00;1717682;83;21327;-88
2021/07/24 00:41:51;;;;;;;32.98;9.28;;;;;;;16.67;80.36;99903.16;1717688;82;21865;-79
2021/07/24 00:44:58;;;;;;;21.55;8.85;;;;;;;16.67;80.40;99900.39;1716898;82;21323;-89
2021/07/24 00:48:04;;;;;;;36.03;9.63;;;;;;;16.66;80.36;99902.85;1716056;82;21176;-89
2021/07/24 00:51:11;;;;;;;39.85;8.38;;;;;;;16.64;80.33;99900.84;1715155;82;21865;-88
2021/07/24 00:54:20;;;;;;;28.32;9.63;;;;;;;16.64;80.23;99902.22;1717719;83;21176;-88
2021/07/24 00:57:27;;;;;;;25.88;9.45;;;;;;;16.64;80.17;99905.81;1717608;83;21272;-88
2021/07/24 01:00:31;;;;;;;27.65;9.23;;;;;;;16.64;80.10;99903.59;1717426;82;21180;-89
2021/07/24 01:03:39;;;;;;;18.70;7.75;;;;;;;16.63;79.98;99901.91;1716144;83;21241;-79
2021/07/24 01:06:46;;;;;;;23.75;7.87;;;;;;;16.61;79.83;99905.75;1716303;82;21236;-78
2021/07/24 01:09:52;;;;;;;19.48;7.75;;;;;;;16.63;79.68;99896.39;1717352;82;21311;-79
2021/07/24 01:12:58;;;;;;;21.33;7.70;;;;;;;16.61;79.55;99902.98;1715994;83;21176;-78
2021/07/24 01:16:05;;;;;;;41.00;8.18;;;;;;;16.62;79.41;99907.97;1695550;83;21257;-88
2021/07/24 01:19:11;;;;;;;23.25;8.23;;;;;;;16.62;79.26;99906.59;1723233;83;21356;-79
2021/07/24 01:22:18;;;;;;;26.95;8.33;;;;;;;16.60;79.09;99891.61;1720878;83;21807;-88
2021/07/24 01:25:24;;;;;;;23.77;7.03;;;;;;;16.61;78.75;99896.63;1723004;82;21340;-79
2021/07/24 01:28:38;;;;;;;19.50;7.00;;;;;;;16.61;78.47;99895.25;1720893;83;21174;-87
2021/07/24 01:31:43;;;;;;;15.53;6.80;;;;;;;16.65;78.04;99898.38;1722156;82;21301;-88
2021/07/24 01:34:53;;;;;;;23.20;6.65;;;;;;;16.66;77.73;99891.81;1720556;82;21170;-88
2021/07/24 01:38:00;;;;;;;17.90;7.05;;;;;;;16.68;77.42;99895.17;1723643;83;21320;-88
2021/07/24 01:41:05;;;;;;;21.30;6.15;;;;;;;16.69;77.08;99894.94;1720791;82;21878;-79
2021/07/24 01:44:10;;;;;;;26.15;6.75;;;;;;;16.71;76.88;99892.81;1723488;83;21822;-87
2021/07/24 01:47:16;;;;;;;16.70;6.47;;;;;;;16.74;76.73;99895.67;1720921;83;21288;-87
2021/07/24 01:53:48;;;;;;;18.95;6.47;;;;;;;16.75;76.47;99898.23;1720912;83;21210;-78
2021/07/24 01:56:55;;;;;;;19.07;6.40;;;;;;;16.74;76.38;99903.95;1722022;82;21357;-78
2021/07/24 02:00:03;;;;;;;30.15;7.10;;;;;;;16.74;76.37;99898.44;1719308;82;21328;-87
2021/07/24 02:03:14;;;;;;;18.00;6.12;;;;;;;16.73;76.34;99905.03;1723481;83;21213;-78
2021/07/24 02:06:24;;;;;;;22.10;6.67;;;;;;;16.72;76.25;99905.58;1671889;83;21332;-87
2021/07/24 02:09:34;;;;;;;15.45;6.78;;;;;;;16.72;76.34;99902.81;1723543;83;21302;-87
2021/07/24 02:12:41;;;;;;;22.32;6.10;;;;;;;16.71;76.40;99905.78;1720461;83;21304;-88
2021/07/24 02:15:47;;;;;;;27.02;6.50;;;;;;;16.69;76.47;99900.46;1720375;82;21247;-88
2021/07/24 02:18:52;;;;;;;22.42;7.10;;;;;;;16.68;76.49;99908.44;1692680;85;21289;-88
2021/07/24 02:21:59;;;;;;;18.40;5.92;;;;;;;16.66;76.48;99907.84;1671001;86;21763;-78
2021/07/24 02:25:06;;;;;;;14.45;6.08;;;;;;;16.67;76.55;99907.30;1692663;83;21332;-78
2021/07/24 02:28:12;;;;;;;16.77;6.30;;;;;;;16.69;76.46;99907.91;1720364;83;21279;-79
2021/07/24 02:31:18;;;;;;;22.22;6.15;;;;;;;16.76;76.16;99909.58;1720367;82;21185;-88
2021/07/24 02:34:24;;;;;;;17.57;6.25;;;;;;;16.93;75.79;99908.98;1720534;83;21279;-78
2021/07/24 02:37:29;;;;;;;16.85;6.42;;;;;;;17.08;75.21;99900.66;1720447;83;21288;-79
2021/07/24 02:40:36;;;;;;;32.95;6.92;;;;;;;17.31;74.37;99901.87;1720396;82;21312;-79
2021/07/24 02:43:42;;;;;;;22.00;6.25;;;;;;;17.54;73.56;99909.48;1720407;83;21280;-87
2021/07/24 02:46:47;;;;;;;21.68;5.53;;;;;;;17.77;72.67;99910.17;1719780;82;21217;-79
2021/07/24 02:49:52;;;;;;;22.70;7.03;;;;;;;17.98;71.74;99902.77;1720175;82;21287;-79
2021/07/24 02:52:59;;;;;;;14.53;6.50;;;;;;;18.20;70.98;99903.61;1718782;82;21172;-79
2021/07/24 02:56:07;;;;;;;20.25;6.62;;;;;;;18.41;70.02;99908.62;1719623;82;21744;-77
2021/07/24 02:59:14;;;;;;;22.87;6.75;;;;;;;18.60;69.17;99914.37;1720208;83;21299;-88
2021/07/24 03:02:25;;;;;;;18.30;7.08;;;;;;;18.77;68.53;99913.69;1719635;83;21355;-79
2021/07/24 03:05:31;;;;;;;15.72;6.75;;;;;;;18.88;67.95;99912.86;1720057;82;21868;-79
2021/07/24 03:08:37;;;;;;;33.67;7.15;;;;;;;19.01;67.39;99911.80;1720155;83;21177;-79
2021/07/24 03:11:43;;;;;;;33.78;8.33;;;;;;;19.10;67.19;99919.50;1719182;82;21358;-79
2021/07/24 03:14:49;;;;;;;27.70;7.87;;;;;;;19.13;66.99;99916.22;1720248;82;21296;-88
2021/07/24 03:17:54;;;;;;;28.92;7.37;;;;;;;19.19;66.92;99921.88;1718623;82;21939;-78
2021/07/24 03:21:01;;;;;;;24.45;7.87;;;;;;;19.23;66.61;99917.55;1718750;82;21265;-78
2021/07/24 03:24:07;;;;;;;33.18;8.70;;;;;;;19.25;66.52;99916.78;1720179;83;21816;-78
2021/07/24 03:27:13;;;;;;;24.35;8.28;;;;;;;19.34;66.48;99923.64;1719451;83;21765;-79
2021/07/24 03:30:19;;;;;;;36.48;8.38;;;;;;;19.48;66.16;99923.68;1720324;82;21837;-79
2021/07/24 03:33:25;;;;;;;20.72;7.75;;;;;;;19.60;65.78;99926.45;1719004;83;21915;-87
2021/07/24 03:36:30;;;;;;;22.02;8.20;;;;;;;19.71;65.50;99928.33;1719271;82;21326;-87
2021/07/24 03:39:36;;;;;;;16.82;7.97;;;;;;;19.82;65.39;99930.80;1720316;83;21284;-87
2021/07/24 03:42:42;;;;;;;23.60;8.23;;;;;;;19.97;64.95;99928.32;1720379;83;21216;-87
2021/07/24 03:45:46;;;;;;;23.38;8.93;;;;;;;20.12;64.71;99927.23;1719990;82;21808;-78
2021/07/24 03:48:54;;;;;;;23.75;8.95;;;;;;;20.28;64.46;99921.95;1718834;83;21340;-78
2021/07/24 03:52:00;;;;;;;24.85;9.45;;;;;;;20.45;64.04;99931.72;1719018;82;21599;-78
2021/07/24 03:55:06;;;;;;;21.93;9.43;;;;;;;20.59;63.84;99927.00;1720125;82;21267;-79
2021/07/24 03:58:10;;;;;;;24.63;9.18;;;;;;;20.80;63.42;99920.42;1719154;83;21295;-86
2021/07/24 04:01:18;;;;;;;21.10;9.33;;;;;;;20.96;63.02;99922.34;1719691;82;21208;-79
2021/07/24 04:04:24;;;;;;;21.62;9.05;;;;;;;21.11;62.64;99925.34;1720319;83;21283;-79
2021/07/24 04:07:30;;;;;;;33.53;10.30;;;;;;;21.24;62.64;99926.94;1720470;83;21344;-84
2021/07/24 04:10:36;;;;;;;17.25;9.40;;;;;;;21.28;62.54;99930.05;1719037;82;21215;-79
2021/07/24 04:13:42;;;;;;;19.60;9.58;;;;;;;21.28;62.33;99924.49;1720426;83;21299;-82
2021/07/24 04:16:47;;;;;;;22.25;10.40;;;;;;;21.33;62.25;99928.22;1720468;82;21200;-86
2021/07/24 04:19:54;;;;;;;24.95;10.18;;;;;;;21.40;61.81;99926.08;1722923;82;21338;-84
2021/07/24 04:22:59;;;;;;;17.65;8.98;;;;;;;21.46;61.49;99931.19;1722846;83;21765;-78
2021/07/24 04:26:05;;;;;;;17.35;8.35;;;;;;;21.54;61.18;99933.50;1722240;82;21837;-79
2021/07/24 04:29:11;;;;;;;22.22;8.03;;;;;;;21.61;61.14;99935.56;1721655;83;21299;-77
2021/07/24 04:32:17;;;;;;;24.35;7.50;;;;;;;21.69;61.13;99938.45;1722896;83;21275;-78
2021/07/24 04:35:23;;;;;;;27.17;8.23;;;;;;;21.71;61.12;99932.63;1722628;82;21318;-80
2021/07/24 04:38:29;;;;;;;19.57;7.67;;;;;;;21.77;61.00;99939.37;1722061;83;21291;-79
2021/07/24 04:41:34;;;;;;;23.18;8.53;;;;;;;21.85;60.66;99945.89;1721797;82;21315;-86
2021/07/24 04:44:40;;;;;;;18.23;7.75;;;;;;;21.90;60.31;99943.72;1722994;83;21363;-85
2021/07/24 04:47:45;;;;;;;15.35;8.35;;;;;;;21.95;60.66;99941.83;1722709;83;21848;-85
2021/07/24 04:50:55;;;;;;;19.73;8.58;;;;;;;22.02;61.05;99944.44;1722511;82;21310;-85
2021/07/24 04:54:01;;;;;;;14.47;9.08;;;;;;;22.10;60.21;99944.50;1723142;83;21275;-86
2021/07/24 04:57:06;;;;;;;26.17;8.05;;;;;;;22.18;60.55;99951.88;1721658;82;21224;-86
2021/07/24 05:00:15;;;;;;;19.05;8.70;;;;;;;22.27;60.68;99950.03;1721439;82;21334;-79
2021/07/24 05:03:20;;;;;;;17.67;8.30;;;;;;;22.36;60.47;99946.51;1723024;83;21208;-79
2021/07/24 05:06:25;;;;;;;17.32;8.65;;;;;;;22.45;60.41;99949.66;1722885;82;21330;-84
2021/07/24 05:09:31;;;;;;;12.60;7.80;;;;;;;22.56;60.47;99955.62;1722828;83;21220;-79
2021/07/24 05:12:37;;;;;;;18.70;8.73;;;;;;;22.62;59.78;99955.95;1723161;83;21165;-79
2021/07/24 05:15:41;;;;;;;19.27;8.55;;;;;;;22.64;59.80;99961.28;1722730;82;21345;-79
2021/07/24 05:18:47;;;;;;;17.17;8.38;;;;;;;22.67;60.22;99962.95;1720432;82;21173;-79
2021/07/24 05:21:52;;;;;;;19.55;9.50;;;;;;;22.71;60.20;99964.12;1717596;82;21320;-85
2021/07/24 05:24:58;;;;;;;13.62;7.78;;;;;;;22.81;60.60;99965.31;1716095;82;21323;-85
2021/07/24 05:28:07;;;;;;;16.73;7.95;;;;;;;22.90;60.65;99965.15;1717429;83;21323;-79
2021/07/24 05:31:12;;;;;;;15.65;8.18;;;;;;;22.99;59.90;99966.90;1716780;82;21923;-79
2021/07/24 05:34:18;;;;;;;17.67;7.70;;;;;;;23.08;60.04;99968.93;1716554;83;21280;-85
2021/07/24 05:37:23;;;;;;;17.35;6.97;;;;;;;23.20;60.11;99967.36;1717476;83;21295;-86
2021/07/24 05:40:29;;;;;;;15.58;6.60;;;;;;;23.39;58.80;99969.16;1717371;82;21841;-85
2021/07/24 05:43:35;;;;;;;15.30;6.70;;;;;;;23.56;58.22;99974.00;1717527;83;21853;-79
2021/07/24 05:46:42;;;;;;;15.38;7.22;;;;;;;23.67;58.10;99975.78;1716457;82;21947;-79
2021/07/24 05:49:48;;;;;;;14.87;7.00;;;;;;;23.78;57.94;99980.02;1716433;82;21926;-78
2021/07/24 05:52:53;;;;;;;13.55;6.80;;;;;;;23.88;56.80;99979.51;1717635;83;21729;-78
2021/07/24 05:55:57;;;;;;;13.90;6.62;;;;;;;23.89;56.93;99979.78;1716955;82;21840;-78
2021/07/24 05:59:02;;;;;;;16.35;6.03;;;;;;;23.91;57.16;99980.38;1717754;83;21667;-85
2021/07/24 06:02:08;;;;;;;9.70;5.72;;;;;;;23.98;56.30;99983.73;1695556;83;21821;-78
2021/07/24 06:05:14;;;;;;;15.60;6.35;;;;;;;24.10;56.35;99986.31;1714904;83;21306;-86
2021/07/24 06:08:27;;;;;;;18.73;5.80;;;;;;;24.20;56.11;99984.95;1858608;76;22204;-86
2021/07/24 06:11:33;;;;;;;11.20;5.72;;;;;;;24.21;55.16;99992.77;1750614;81;21827;-87
2021/07/24 06:14:40;;;;;;;19.00;5.22;;;;;;;24.33;55.30;99995.34;1736778;82;21276;-86
2021/07/24 06:17:47;;;;;;;24.37;5.25;;;;;;;24.44;55.21;99995.67;1751578;82;21878;-80
2021/07/24 06:20:52;;;;;;;9.93;4.25;;;;;;;24.57;54.52;99997.11;1737011;82;21204;-80
2021/07/24 06:23:59;;;;;;;8.53;4.37;;;;;;;24.69;53.65;99997.11;1751636;82;21208;-86
2021/07/24 06:27:04;;;;;;;10.68;4.60;;;;;;;24.77;53.84;99997.14;1737049;82;21328;-87
2021/07/24 06:30:10;;;;;;;12.55;4.55;;;;;;;24.77;53.20;99998.53;1751504;81;21337;-85
2021/07/24 06:33:15;;;;;;;9.13;4.42;;;;;;;24.87;53.27;99991.55;1737498;82;21285;-78
2021/07/24 06:36:20;;;;;;;12.35;4.45;;;;;;;25.01;53.00;99998.00;1750286;81;21298;-78
2021/07/24 06:39:26;;;;;;;17.87;4.97;;;;;;;25.06;52.09;99996.03;1737373;82;21699;-78
2021/07/24 06:42:32;;;;;;;7.45;3.52;;;;;;;25.11;52.42;99993.83;1751345;82;21156;-79
2021/07/24 06:45:38;;;;;;;15.32;3.02;;;;;;;25.23;49.81;99998.03;1736733;82;21295;-85
2021/07/24 06:48:42;;;;;;;8.60;3.25;;;;;;;25.34;47.74;100003.05;1749752;82;21675;-86
2021/07/24 06:51:47;;;;;;;15.93;3.42;;;;;;;25.43;47.06;99994.92;1736201;82;21233;-86
2021/07/24 06:54:52;;;;;;;8.23;3.12;;;;;;;25.51;46.92;99999.13;1751186;81;21462;-76
2021/07/24 06:57:57;;;;;;;10.78;2.50;;;;;;;25.53;47.05;100000.50;1736454;82;21339;-79
2021/07/24 07:01:02;;;;;;;5.35;2.42;;;;;;;25.55;45.32;100001.61;1751072;81;21835;-87
2021/07/24 07:04:10;;;;;;;4.75;2.85;;;;;;;25.50;46.10;100010.86;1737385;82;21145;-86
2021/07/24 07:07:15;;;;;;;6.45;2.40;;;;;;;25.47;47.11;99997.44;1747001;82;22173;-79
2021/07/24 07:10:23;;;;;;;6.35;2.60;;;;;;;25.55;44.46;100002.48;1739784;82;21208;-80
2021/07/24 07:13:29;;;;;;;8.18;2.33;;;;;;;25.62;43.91;100003.01;1741340;82;21296;-79
2021/07/24 07:16:35;;;;;;;7.28;2.40;;;;;;;25.65;43.93;100001.05;1741155;82;21778;-87
2021/07/24 07:19:41;;;;;;;7.20;2.30;;;;;;;25.67;43.54;100003.00;1740773;82;21273;-86
2021/07/24 07:22:46;;;;;;;7.60;2.22;;;;;;;25.68;43.74;99999.63;1740764;82;21371;-79
2021/07/24 07:25:52;;;;;;;4.25;2.52;;;;;;;25.76;42.68;100007.48;1740873;82;21360;-87
2021/07/24 07:29:01;;;;;;;6.87;2.37;;;;;;;25.83;42.76;100002.98;1740738;82;21307;-86
2021/07/24 07:32:03;;;;;;;6.72;2.20;;;;;;;25.93;43.54;99994.00;1740599;82;21315;-86
2021/07/24 07:35:08;;;;;;;8.53;1.98;;;;;;;26.02;43.07;99991.98;1740627;82;21347;-79
2021/07/24 07:38:14;;;;;;;5.70;1.70;;;;;;;26.05;41.74;100013.27;1740231;82;21196;-79
2021/07/24 07:41:18;;;;;;;4.83;1.92;;;;;;;26.03;41.78;99997.33;1740609;82;21758;-79
2021/07/24 07:44:24;;;;;;;2.85;1.60;;;;;;;26.04;40.61;99997.59;1740803;82;21750;-87
2021/07/24 07:47:30;;;;;;;4.87;1.70;;;;;;;26.06;39.84;100002.34;1740749;82;21280;-79
2021/07/24 07:50:30;;;;;;;6.03;1.92;;;;;;;26.11;39.82;99999.55;1740762;82;21205;-87
2021/07/24 07:53:36;;;;;;;5.17;1.95;;;;;;;26.14;40.59;99992.51;1740689;82;21308;-86
2021/07/24 07:56:41;;;;;;;4.87;2.15;;;;;;;26.17;41.98;100003.99;1740596;82;21853;-79
2021/07/24 07:59:46;;;;;;;5.83;2.02;;;;;;;26.17;41.05;99995.58;1740679;82;21801;-87
2021/07/24 08:03:01;;;;;;;3.22;1.92;;;;;;;26.21;42.41;99999.49;1740825;82;21280;-79
2021/07/24 08:06:06;;;;;;;4.22;1.82;;;;;;;26.25;41.79;100001.13;1740680;82;21205;-79
2021/07/24 08:09:13;;;;;;;7.17;1.90;;;;;;;26.25;42.45;100003.41;1739233;82;21316;-86
2021/07/24 08:12:18;;;;;;;5.85;1.80;;;;;;;26.27;41.40;100011.52;1740449;82;21770;-79
2021/07/24 08:15:26;;;;;;;4.87;1.90;;;;;;;26.33;41.09;100002.51;1739339;82;21237;-79
2021/07/24 08:18:32;;;;;;;3.15;1.85;;;;;;;26.34;40.37;100016.80;1740464;82;21153;-87
2021/07/24 08:21:38;;;;;;;8.38;1.85;;;;;;;26.31;40.32;100010.38;1739557;82;21315;-87
2021/07/24 08:24:43;;;;;;;10.43;2.05;;;;;;;26.40;39.01;100003.88;1739654;82;21204;-87
2021/07/24 08:27:49;;;;;;;4.83;1.77;;;;;;;26.45;39.95;100012.86;1740715;82;21348;-87
2021/07/24 08:30:56;;;;;;;9.50;1.70;;;;;;;26.41;40.17;100012.56;1739987;82;21241;-87
2021/07/24 08:34:02;;;;;;;7.92;1.80;;;;;;;26.46;39.19;100009.76;1740659;82;21798;-79
2021/07/24 08:37:07;;;;;;;4.90;1.92;;;;;;;26.58;38.87;100011.37;1739170;82;21347;-79
2021/07/24 08:40:13;;;;;;;6.60;1.92;;;;;;;26.70;39.25;100007.09;1711520;83;21316;-79
2021/07/24 08:43:20;;;;;;;7.35;2.08;;;;;;;26.86;39.91;100012.59;1734733;83;21157;-87
2021/07/24 08:46:24;;;;;;;5.00;1.70;;;;;;;26.93;38.96;100015.92;1734947;82;21339;-82
2021/07/24 08:49:31;;;;;;;10.32;1.70;;;;;;;26.95;37.63;100015.88;1734930;83;21826;-87
2021/07/24 08:52:38;;;;;;;4.08;1.70;;;;;;;26.91;37.81;100019.56;1734858;83;21854;-88
2021/07/24 08:55:43;;;;;;;5.62;1.90;;;;;;;26.78;37.49;100018.84;1734851;83;21218;-88
2021/07/24 08:58:49;;;;;;;5.40;1.77;;;;;;;26.72;38.40;100024.48;1735077;83;21276;-87
2021/07/24 09:02:02;;;;;;;5.12;1.80;;;;;;;26.73;38.94;100025.32;1735086;83;21352;-88
2021/07/24 09:05:10;;;;;;;4.75;1.98;;;;;;;26.77;38.04;100010.95;1734789;83;21317;-80
2021/07/24 09:08:16;;;;;;;5.17;1.82;;;;;;;26.87;37.39;100014.28;1734239;83;21173;-88
2021/07/24 09:11:20;;;;;;;5.65;1.70;;;;;;;26.96;39.00;100017.59;1744525;82;21192;-79
2021/07/24 09:14:27;;;;;;;4.35;1.82;;;;;;;26.97;37.59;100023.46;1747910;82;21177;-79
2021/07/24 09:17:32;;;;;;;4.75;1.80;;;;;;;26.87;37.60;100025.52;1747958;82;21181;-88
2021/07/24 09:20:37;;;;;;;4.62;1.62;;;;;;;26.89;38.13;100021.84;1747461;82;21328;-88
2021/07/24 09:23:47;;;;;;;7.83;1.85;;;;;;;26.90;36.89;100022.94;1748359;82;21322;-79
2021/07/24 09:26:51;;;;;;;4.60;1.98;;;;;;;26.89;36.66;100020.44;1747426;82;21876;-87
2021/07/24 09:29:57;;;;;;;3.60;1.80;;;;;;;26.97;37.88;100028.23;1746987;82;21194;-78
2021/07/24 09:33:12;;;;;;;16.42;2.00;;;;;;;26.99;39.24;100026.80;1748585;82;21212;-88
2021/07/24 09:36:19;;;;;;;2.12;1.70;;;;;;;27.00;38.71;100024.27;1746323;82;21748;-87
2021/07/24 09:39:26;;;;;;;2.85;1.90;;;;;;;27.01;36.75;100023.73;1748434;82;21730;-86
2021/07/24 09:42:42;;;;;;;11.25;2.12;;;;;;;27.02;35.71;100022.59;1747253;82;21173;-87
2021/07/24 09:45:49;;;;;;;8.00;2.10;;;;;;;27.00;37.52;100019.22;1747977;82;21339;-79
2021/07/24 09:48:59;;;;;;;3.70;1.60;;;;;;;26.94;38.73;100020.39;1748516;82;21284;-79
2021/07/24 09:52:08;;;;;;;5.35;1.70;;;;;;;27.02;38.66;100025.39;1747197;82;21335;-80
2021/07/24 09:55:31;;;;;;;8.63;1.98;;;;;;;27.03;37.38;100010.80;1748525;82;21295;-80
2021/07/24 09:58:37;;;;;;;3.30;1.40;;;;;;;27.14;38.36;100018.02;1748510;82;21284;-80
2021/07/24 10:01:43;;;;;;;7.05;1.82;;;;;;;27.17;36.57;100009.86;1748542;82;21311;-79
2021/07/24 10:04:49;;;;;;;9.00;2.12;;;;;;;27.11;36.78;100005.42;1748675;82;21311;-80
2021/07/24 10:07:54;;;;;;;6.47;2.00;;;;;;;27.01;37.90;100005.48;1727753;82;21271;-80
2021/07/24 10:10:59;;;;;;;4.20;1.70;;;;;;;26.88;38.70;100012.58;1742759;82;21814;-88
2021/07/24 10:14:06;;;;;;;8.28;1.77;;;;;;;26.83;37.92;100016.83;1733725;82;21162;-88
2021/07/24 10:17:12;;;;;;;6.25;2.05;;;;;;;26.82;37.32;100012.36;1735082;82;21817;-78
2021/07/24 10:20:18;;;;;;;7.00;2.15;;;;;;;26.85;36.99;100008.95;1734568;82;21340;-88
2021/07/24 10:23:24;;;;;;;7.37;2.12;;;;;;;26.93;36.53;100009.73;1712306;82;21331;-78
2021/07/24 10:26:33;;;;;;;3.87;1.70;;;;;;;26.93;37.30;100008.33;1733947;82;21288;-79
2021/07/24 10:29:41;;;;;;;3.80;1.80;;;;;;;26.90;37.60;100011.72;1734358;82;21731;-79
2021/07/24 10:32:46;;;;;;;8.58;1.90;;;;;;;26.92;36.30;100010.04;1734405;82;21189;-80
2021/07/24 10:35:51;;;;;;;9.45;2.15;;;;;;;27.00;37.09;100002.38;1733895;82;21902;-80
2021/07/24 10:39:17;;;;;;;3.80;1.77;;;;;;;27.10;38.19;100007.10;1733614;82;21169;-87
2021/07/24 10:42:24;;;;;;;2.98;1.90;;;;;;;27.10;37.00;100009.91;1731753;82;21177;-78
2021/07/24 10:45:47;;;;;;;3.05;1.80;;;;;;;27.04;37.57;100003.47;1732415;82;21189;-88
2021/07/24 10:48:54;;;;;;;6.55;1.90;;;;;;;26.91;38.39;100001.33;1735161;82;21225;-79
2021/07/24 10:52:05;;;;;;;6.12;2.30;;;;;;;26.80;37.33;100000.56;1734002;82;21205;-88
2021/07/24 10:55:14;;;;;;;2.60;1.80;;;;;;;26.85;37.41;100003.33;1704617;84;21176;-87
2021/07/24 10:58:22;;;;;;;8.00;1.87;;;;;;;26.87;38.42;100005.88;1704528;84;21347;-79
2021/07/24 11:01:47;;;;;;;12.20;1.80;;;;;;;26.86;37.29;100006.41;1704162;84;21221;-78
2021/07/24 11:04:56;;;;;;;9.45;1.90;;;;;;;26.96;37.77;100002.69;1647755;87;21185;-79
2021/07/24 11:08:02;;;;;;;5.05;1.90;;;;;;;27.09;37.39;100002.05;1704032;84;21323;-79
2021/07/24 11:11:16;;;;;;;4.97;1.67;;;;;;;27.09;36.96;99997.84;1709080;82;21750;-79
2021/07/24 11:14:46;;;;;;;10.70;2.20;;;;;;;27.08;36.91;100006.00;1733858;82;21162;-89
2021/07/24 11:17:52;;;;;;;7.58;2.05;;;;;;;26.84;37.63;100001.66;1733777;82;21205;-79
2021/07/24 11:20:58;;;;;;;4.58;1.67;;;;;;;26.72;38.05;99995.03;1734580;82;21307;-79
2021/07/24 11:24:19;;;;;;;8.68;1.87;;;;;;;26.84;38.28;99999.42;1735039;82;21174;-89
2021/07/24 11:27:34;;;;;;;5.05;2.20;;;;;;;26.99;38.75;99999.30;1734698;82;21277;-80
2021/07/24 11:30:39;;;;;;;7.95;2.35;;;;;;;27.03;39.01;99999.56;1734352;82;21217;-89
2021/07/24 11:33:46;;;;;;;6.08;2.10;;;;;;;26.92;38.55;100000.22;1734716;82;21288;-89
2021/07/24 11:36:56;;;;;;;4.97;2.12;;;;;;;26.81;40.28;99999.43;1734897;82;21209;-81
2021/07/24 11:40:01;;;;;;;7.83;2.20;;;;;;;26.80;39.87;99998.33;1735033;82;21709;-90
2021/07/24 11:43:13;;;;;;;7.95;2.70;;;;;;;26.87;39.11;99990.44;1734583;82;21396;-77
2021/07/24 11:46:20;;;;;;;5.10;2.08;;;;;;;27.05;38.53;99992.51;1735285;82;21315;-87
2021/07/24 11:49:27;;;;;;;12.63;2.62;;;;;;;27.27;37.70;99996.30;1735172;82;21166;-87
2021/07/24 11:52:33;;;;;;;6.40;2.40;;;;;;;27.43;37.56;99997.84;1735098;82;21178;-78
2021/07/24 11:55:40;;;;;;;7.03;2.50;;;;;;;27.44;37.30;100000.08;1735089;82;21316;-87
2021/07/24 11:58:46;;;;;;;11.15;2.55;;;;;;;27.34;38.37;100000.19;1735299;82;21327;-78
2021/07/24 12:01:52;;;;;;;9.85;2.95;;;;;;;27.13;40.02;100000.34;1734537;82;21209;-78
2021/07/24 12:04:58;;;;;;;8.45;2.72;;;;;;;26.98;40.50;99997.64;1735129;82;21221;-89
2021/07/24 12:08:04;;;;;;;7.67;2.80;;;;;;;26.97;39.06;100002.41;1735087;82;21312;-79
2021/07/24 12:11:10;;;;;;;8.63;2.72;;;;;;;27.07;39.98;100011.31;1711371;82;21656;-79
2021/07/24 12:14:16;;;;;;;9.90;3.65;;;;;;;27.19;39.46;100008.98;1733288;82;21774;-79
2021/07/24 12:17:21;;;;;;;9.10;3.33;;;;;;;27.34;38.20;100004.39;1735220;82;21185;-79
2021/07/24 12:20:30;;;;;;;5.87;2.50;;;;;;;27.46;37.80;100000.61;1735183;82;21327;-80
2021/07/24 12:23:34;;;;;;;6.05;3.08;;;;;;;27.58;37.98;100010.89;1735254;82;21296;-79
2021/07/24 12:26:45;;;;;;;10.53;3.00;;;;;;;27.68;39.15;100005.16;1734219;82;21916;-79
2021/07/24 12:30:01;;;;;;;;;;;;;;;27.81;38.38;100012.63;1737656;82;21303;-87
2021/07/24 12:33:06;;;;;;;6.80;3.02;;;;;;;27.91;38.62;100013.95;1733693;82;20203;-89
2021/07/24 12:36:12;;;;;;;12.10;3.20;;;;;;;27.87;38.47;100012.86;1734503;82;21618;-88
2021/07/24 12:39:29;;;;;;;10.85;2.90;;;;;;;27.83;39.42;100023.02;1735301;82;21288;-88
2021/07/24 12:42:38;;;;;;;6.37;2.72;;;;;;;27.76;39.30;100022.81;1735150;82;21829;-79
2021/07/24 12:45:43;;;;;;;8.50;3.15;;;;;;;27.64;40.41;100018.12;1735372;82;21356;-88
2021/07/24 12:48:53;;;;;;;6.75;3.00;;;;;;;27.56;41.44;100016.52;1734380;82;21201;-79
2021/07/24 12:51:58;;;;;;;10.10;2.80;;;;;;;27.48;40.38;100016.05;1733509;82;21209;-79
2021/07/24 12:55:10;;;;;;;7.97;3.02;;;;;;;27.48;39.88;100016.05;1734959;82;21299;-79
2021/07/24 12:58:15;;;;;;;10.43;3.58;;;;;;;27.53;39.72;100018.53;1735083;82;21288;-77
2021/07/24 13:01:22;;;;;;;5.92;3.45;;;;;;;27.57;39.55;100014.84;1734208;82;21308;-86
2021/07/24 13:04:27;;;;;;;13.32;3.72;;;;;;;27.63;38.60;100015.62;1735184;82;21349;-79
2021/07/24 13:07:32;;;;;;;7.70;3.08;;;;;;;27.69;38.94;100015.26;1735124;82;21280;-78
2021/07/24 13:10:37;;;;;;;7.15;2.77;;;;;;;27.67;38.17;100016.14;1735158;82;21209;-88
2021/07/24 13:13:41;;;;;;;7.90;3.00;;;;;;;27.63;38.84;100020.67;1734488;82;21249;-87
2021/07/24 13:16:47;;;;;;;10.55;3.50;;;;;;;27.59;40.06;100018.75;1735241;82;21285;-87
2021/07/24 13:19:52;;;;;;;8.45;3.10;;;;;;;27.57;39.84;100021.86;1734025;82;21682;-79
2021/07/24 13:22:58;;;;;;;6.30;3.17;;;;;;;27.58;40.49;100018.48;1734747;82;21281;-78
2021/07/24 13:29:17;;;;;;;9.48;3.15;;;;;;;27.58;39.22;100019.31;1721206;82;21301;-87
2021/07/24 13:32:23;;;;;;;7.40;3.30;;;;;;;27.58;38.92;100019.31;1734869;82;21810;-79
2021/07/24 13:35:29;;;;;;;10.25;3.08;;;;;;;27.59;39.25;100021.55;1734750;82;21340;-88
2021/07/24 13:38:33;;;;;;;7.72;3.45;;;;;;;27.63;39.23;100017.86;1735183;82;21844;-79
2021/07/24 13:41:39;;;;;;;13.68;2.92;;;;;;;27.63;39.50;100020.67;1735007;82;21316;-79
2021/07/24 13:44:43;;;;;;;11.00;3.37;;;;;;;27.64;39.00;100012.50;1735107;82;21197;-83
2021/07/24 13:47:50;;;;;;;12.00;3.10;;;;;;;27.65;40.86;100014.17;1735061;82;21281;-78
2021/07/24 13:50:55;;;;;;;7.85;3.00;;;;;;;27.60;39.68;100015.63;1735017;82;21233;-88
2021/07/24 13:54:00;;;;;;;8.78;3.20;;;;;;;27.53;39.71;100012.35;1734240;82;21858;-86
2021/07/24 13:57:06;;;;;;;10.05;3.00;;;;;;;27.46;40.08;100016.89;1733601;82;21337;-78
2021/07/24 14:00:13;;;;;;;12.65;3.70;;;;;;;27.41;39.82;100018.34;1735158;82;21312;-88
2021/07/24 14:03:18;;;;;;;7.55;3.00;;;;;;;27.37;40.27;100015.02;1735214;82;21273;-87
2021/07/24 14:06:24;;;;;;;6.00;3.25;;;;;;;27.33;40.08;100020.37;1735287;82;21786;-88
2021/07/24 14:09:29;;;;;;;5.33;2.95;;;;;;;27.32;39.71;100015.06;1734784;82;21296;-87
2021/07/24 14:12:34;;;;;;;9.93;3.12;;;;;;;27.31;39.98;100016.20;1733815;82;21153;-87
2021/07/24 14:15:42;;;;;;;6.47;3.10;;;;;;;27.26;40.02;100022.13;1731113;82;21197;-88
2021/07/24 14:18:50;;;;;;;8.58;3.50;;;;;;;27.24;39.57;100023.01;1730896;83;21319;-87
2021/07/24 14:21:56;;;;;;;5.42;2.98;;;;;;;27.25;39.48;100022.44;1730695;82;21311;-79
2021/07/24 14:25:04;;;;;;;11.03;3.58;;;;;;;27.23;39.31;100024.11;1701255;84;21290;-78
2021/07/24 14:28:09;;;;;;;8.28;3.20;;;;;;;27.21;39.58;100023.58;1684256;85;21298;-88
2021/07/24 14:31:16;;;;;;;10.32;3.22;;;;;;;27.21;39.36;100017.97;1683837;85;21328;-88
2021/07/24 14:34:22;;;;;;;6.42;3.15;;;;;;;27.23;40.25;100032.53;1717163;83;21319;-79